Time;durP1;ratioP1;P1;durP2;ratioP2;P2;SDS_P1;SDS_P2;PMS_P1;PMS_P2;Temp;Humidity;BMP_temperature;BMP_pressure;BME280_temperature;BME280_humidity;BME280_pressure;Samples;Min_cycle;Max_cycle;Signal;HPM_P1;HPM_P2
2022/01/16 00:04:06;;;;;;;17.20;9.38;;;;;;;;;;4993599;28;20449;-38
2022/01/16 00:04:28;;;;;;;18.13;9.77;;;;;;;;;;4992908;28;20046;-37
2022/01/16 00:06:54;;;;;;;18.17;8.25;;;;;;;;;;4993324;28;20034;-39
2022/01/16 00:09:19;;;;;;;26.42;10.43;;;;;;;;;;4991938;28;20105;-38
2022/01/16 00:11:45;;;;;;;20.02;10.15;;;;;;;;;;4992063;28;20057;-38
2022/01/16 00:14:11;;;;;;;26.95;10.88;;;;;;;;;;4993463;28;20407;-38
2022/01/16 00:16:39;;;;;;;23.88;10.27;;;;;;;;;;4992762;28;20026;-38
2022/01/16 00:19:04;;;;;;;23.35;9.13;;;;;;;;;;4993131;28;20062;-37
2022/01/16 00:21:33;;;;;;;23.30;10.57;;;;;;;;;;4993025;28;20465;-39
2022/01/16 00:23:59;;;;;;;20.70;8.27;;;;;;;;;;4993012;28;20031;-37
2022/01/16 00:26:25;;;;;;;26.20;9.43;;;;;;;;;;4992969;28;20036;-37
2022/01/16 00:28:51;;;;;;;16.63;8.93;;;;;;;;;;4992903;28;20062;-36
2022/01/16 00:31:19;;;;;;;24.08;9.38;;;;;;;;;;4992362;28;20529;-37
2022/01/16 00:33:45;;;;;;;14.23;7.95;;;;;;;;;;4992642;28;20038;-37
2022/01/16 00:36:12;;;;;;;13.68;8.15;;;;;;;;;;4992341;28;20027;-37
2022/01/16 00:38:47;;;;;;;16.70;7.05;;;;;;;;;;4993125;28;20030;-37
2022/01/16 00:41:16;;;;;;;16.02;9.30;;;;;;;;;;4992890;28;20041;-37
2022/01/16 00:43:41;;;;;;;23.83;9.73;;;;;;;;;;4992896;28;20169;-37
2022/01/16 00:46:07;;;;;;;21.70;9.45;;;;;;;;;;4992818;28;20529;-37
2022/01/16 00:48:32;;;;;;;27.52;9.57;;;;;;;;;;4993043;28;20034;-38
2022/01/16 00:50:59;;;;;;;28.55;10.52;;;;;;;;;;4992785;28;20030;-37
2022/01/16 00:53:24;;;;;;;19.45;9.57;;;;;;;;;;4992767;28;20034;-37
2022/01/16 00:55:50;;;;;;;21.45;8.40;;;;;;;;;;4992844;28;20051;-38
2022/01/16 00:58:15;;;;;;;20.90;8.40;;;;;;;;;;4994523;28;20149;-39
2022/01/16 01:00:41;;;;;;;14.65;8.50;;;;;;;;;;4997037;28;20033;-38
2022/01/16 01:03:07;;;;;;;21.15;8.30;;;;;;;;;;4996079;28;20025;-38
2022/01/16 01:05:34;;;;;;;23.65;8.82;;;;;;;;;;4996522;28;20125;-38
2022/01/16 01:07:59;;;;;;;18.83;8.80;;;;;;;;;;4996636;28;20037;-38
2022/01/16 01:10:31;;;;;;;21.13;9.43;;;;;;;;;;4996970;28;20038;-37
2022/01/16 01:13:06;;;;;;;22.00;8.57;;;;;;;;;;4996981;28;20054;-38
2022/01/16 01:15:40;;;;;;;19.20;8.68;;;;;;;;;;4996794;28;20026;-38
2022/01/16 01:18:06;;;;;;;22.80;9.98;;;;;;;;;;4996690;28;20022;-38
2022/01/16 01:20:32;;;;;;;24.77;9.98;;;;;;;;;;4996878;28;20105;-38
2022/01/16 01:22:57;;;;;;;19.90;8.60;;;;;;;;;;4996618;28;20105;-37
2022/01/16 01:25:23;;;;;;;18.27;7.95;;;;;;;;;;4996717;28;20030;-37
2022/01/16 01:27:49;;;;;;;17.45;8.85;;;;;;;;;;4995169;28;20034;-38
2022/01/16 01:30:17;;;;;;;16.60;9.20;;;;;;;;;;4996656;28;20474;-38
2022/01/16 01:32:46;;;;;;;20.48;9.02;;;;;;;;;;4996705;28;20022;-38
2022/01/16 01:35:15;;;;;;;15.50;7.95;;;;;;;;;;4996272;28;20018;-38
2022/01/16 01:37:41;;;;;;;27.02;9.13;;;;;;;;;;4996454;28;20038;-38
2022/01/16 01:40:11;;;;;;;22.35;9.30;;;;;;;;;;4996520;28;20049;-38
2022/01/16 01:51:15;;;;;;;24.42;8.25;;;;;;;;;;4996388;28;20108;-38
2022/01/16 01:53:42;;;;;;;20.65;7.65;;;;;;;;;;4995902;28;20077;-37
2022/01/16 01:56:11;;;;;;;18.35;8.73;;;;;;;;;;4995702;28;20494;-37
2022/01/16 01:58:36;;;;;;;19.42;8.77;;;;;;;;;;4995983;28;20042;-37
2022/01/16 02:01:03;;;;;;;15.98;7.78;;;;;;;;;;4995809;28;20018;-37
2022/01/16 02:03:42;;;;;;;21.25;7.80;;;;;;;;;;4996071;28;20026;-38
2022/01/16 02:06:16;;;;;;;18.02;6.93;;;;;;;;;;4995998;28;20564;-38
2022/01/16 02:08:43;;;;;;;16.23;8.27;;;;;;;;;;4995348;28;20034;-37
2022/01/16 02:11:11;;;;;;;20.05;9.00;;;;;;;;;;4995645;28;20106;-37
2022/01/16 02:13:47;;;;;;;15.05;7.78;;;;;;;;;;4995119;28;20030;-39
2022/01/16 02:34:50;;;;;;;20.98;7.35;;;;;;;;;;4995597;28;20050;-38
2022/01/16 02:37:19;;;;;;;16.77;7.25;;;;;;;;;;4995427;28;20110;-38
2022/01/16 02:39:51;;;;;;;16.33;7.45;;;;;;;;;;4995140;28;20084;-38
2022/01/16 02:42:17;;;;;;;16.10;6.90;;;;;;;;;;4995123;28;20030;-38
2022/01/16 02:45:00;;;;;;;11.63;6.45;;;;;;;;;;4995349;28;20030;-37
2022/01/16 02:47:26;;;;;;;21.85;7.72;;;;;;;;;;4995290;28;20101;-37
2022/01/16 02:49:53;;;;;;;15.00;6.82;;;;;;;;;;4995270;28;20110;-38
2022/01/16 02:52:21;;;;;;;28.75;7.35;;;;;;;;;;4995235;28;20036;-38
2022/01/16 02:54:48;;;;;;;15.82;7.07;;;;;;;;;;4995084;28;20034;-37
2022/01/16 02:57:17;;;;;;;14.10;7.25;;;;;;;;;;4994591;28;20125;-37
2022/01/16 02:59:54;;;;;;;9.48;5.47;;;;;;;;;;4994789;28;20486;-37
2022/01/16 03:02:21;;;;;;;4.47;3.20;;;;;;;;;;4995123;28;20395;-37
2022/01/16 03:04:47;;;;;;;15.45;7.47;;;;;;;;;;4994686;28;20029;-37
2022/01/16 03:07:13;;;;;;;18.48;7.10;;;;;;;;;;4994899;28;20117;-37
2022/01/16 03:10:01;;;;;;;12.07;6.53;;;;;;;;;;4994931;28;20097;-37
2022/01/16 03:12:26;;;;;;;12.88;6.00;;;;;;;;;;4994444;28;20038;-37
2022/01/16 03:14:52;;;;;;;17.42;6.35;;;;;;;;;;4994804;28;20073;-38
2022/01/16 03:17:36;;;;;;;18.63;7.13;;;;;;;;;;4994328;28;20030;-38
2022/01/16 03:22:48;;;;;;;13.25;5.72;;;;;;;;;;4994681;28;20085;-38
2022/01/16 03:25:13;;;;;;;6.10;4.43;;;;;;;;;;4994575;28;20038;-38
2022/01/16 03:27:39;;;;;;;8.00;3.83;;;;;;;;;;4994124;28;20064;-38
2022/01/16 03:30:05;;;;;;;1.08;1.02;;;;;;;;;;4994533;28;20466;-38
2022/01/16 03:32:30;;;;;;;11.07;6.05;;;;;;;;;;4994078;28;20080;-37
2022/01/16 03:34:56;;;;;;;13.25;6.18;;;;;;;;;;4994154;28;20500;-37
2022/01/16 03:37:21;;;;;;;22.67;7.30;;;;;;;;;;4994368;28;20042;-37
2022/01/16 03:39:47;;;;;;;18.95;7.38;;;;;;;;;;4994001;28;20109;-37
2022/01/16 03:42:12;;;;;;;17.30;7.07;;;;;;;;;;4994334;28;20019;-38
2022/01/16 03:44:38;;;;;;;22.67;7.88;;;;;;;;;;4993911;28;20030;-38
2022/01/16 03:47:04;;;;;;;24.48;6.85;;;;;;;;;;4994114;28;20034;-38
2022/01/16 03:49:31;;;;;;;14.23;6.18;;;;;;;;;;4993881;28;20107;-38
2022/01/16 03:51:58;;;;;;;13.15;7.38;;;;;;;;;;4993768;28;20054;-38
2022/01/16 03:54:30;;;;;;;15.43;5.68;;;;;;;;;;4994178;28;20030;-38
2022/01/16 03:56:56;;;;;;;15.50;7.13;;;;;;;;;;4993651;28;20046;-38
2022/01/16 03:59:22;;;;;;;9.57;5.80;;;;;;;;;;4993969;28;20018;-37
2022/01/16 04:01:48;;;;;;;16.88;6.22;;;;;;;;;;4993561;28;20038;-38
2022/01/16 04:04:13;;;;;;;16.42;6.20;;;;;;;;;;4993848;28;20022;-37
2022/01/16 04:06:39;;;;;;;14.13;6.25;;;;;;;;;;4993620;28;20022;-38
2022/01/16 04:09:05;;;;;;;11.40;5.82;;;;;;;;;;4993461;28;20501;-37
2022/01/16 04:11:31;;;;;;;12.05;6.10;;;;;;;;;;4993761;28;20022;-38
2022/01/16 04:16:49;;;;;;;7.95;4.03;;;;;;;;;;4993419;28;20034;-38
2022/01/16 04:19:15;;;;;;;13.75;6.15;;;;;;;;;;4992241;28;20479;-38
2022/01/16 04:21:40;;;;;;;15.20;6.60;;;;;;;;;;4993338;28;20113;-37
2022/01/16 04:24:06;;;;;;;15.25;5.25;;;;;;;;;;4993556;28;20238;-38
2022/01/16 04:26:31;;;;;;;6.28;2.55;;;;;;;;;;4993593;28;20061;-37
2022/01/16 04:28:57;;;;;;;10.43;4.65;;;;;;;;;;4993229;28;20034;-37
2022/01/16 04:31:23;;;;;;;8.13;5.57;;;;;;;;;;4993317;28;20026;-38
2022/01/16 04:33:49;;;;;;;11.90;5.93;;;;;;;;;;4993220;28;20026;-38
2022/01/16 04:36:14;;;;;;;8.07;5.40;;;;;;;;;;4993395;28;20027;-38
2022/01/16 04:38:47;;;;;;;16.25;6.40;;;;;;;;;;4993503;28;20387;-37
2022/01/16 04:43:58;;;;;;;22.75;7.78;;;;;;;;;;4993158;28;20512;-38
2022/01/16 04:46:28;;;;;;;18.35;5.57;;;;;;;;;;4992974;28;20435;-38
2022/01/16 04:48:55;;;;;;;10.93;6.05;;;;;;;;;;4993067;28;20113;-38
2022/01/16 04:51:22;;;;;;;8.73;5.35;;;;;;;;;;4993123;28;20030;-37
2022/01/16 04:53:48;;;;;;;2.40;2.20;;;;;;;;;;4993376;28;20029;-37
2022/01/16 04:56:14;;;;;;;1.83;1.45;;;;;;;;;;4992736;28;20042;-38
2022/01/16 04:58:41;;;;;;;10.25;6.78;;;;;;;;;;4993280;28;20034;-37
2022/01/16 05:01:08;;;;;;;18.33;8.52;;;;;;;;;;4993280;28;20026;-37
2022/01/16 05:03:34;;;;;;;26.05;10.27;;;;;;;;;;4993260;28;20038;-37
2022/01/16 05:06:01;;;;;;;22.88;9.13;;;;;;;;;;4993018;28;20549;-38
2022/01/16 05:08:28;;;;;;;20.10;9.73;;;;;;;;;;4992869;28;20038;-38
2022/01/16 05:10:56;;;;;;;26.92;11.65;;;;;;;;;;4992921;28;20573;-38
2022/01/16 05:18:34;;;;;;;30.13;10.68;;;;;;;;;;4992779;28;20465;-38
2022/01/16 05:21:00;;;;;;;16.80;9.15;;;;;;;;;;4993037;28;20434;-38
2022/01/16 05:23:26;;;;;;;21.83;9.80;;;;;;;;;;4992798;28;20026;-38
2022/01/16 05:25:51;;;;;;;19.27;9.68;;;;;;;;;;4992758;28;20463;-38
2022/01/16 05:28:17;;;;;;;21.30;10.00;;;;;;;;;;4993081;28;20026;-38
2022/01/16 05:30:42;;;;;;;11.88;6.30;;;;;;;;;;4992900;28;20026;-38
2022/01/16 05:33:09;;;;;;;19.63;9.45;;;;;;;;;;4993023;28;20045;-37
2022/01/16 05:35:34;;;;;;;19.63;10.23;;;;;;;;;;4992702;28;20034;-37
2022/01/16 05:38:00;;;;;;;23.45;9.13;;;;;;;;;;4992857;28;20034;-37
2022/01/16 05:40:26;;;;;;;17.85;7.85;;;;;;;;;;4992951;28;20386;-38
2022/01/16 05:42:51;;;;;;;20.38;6.68;;;;;;;;;;4992562;28;20475;-37
2022/01/16 05:45:17;;;;;;;2.22;1.65;;;;;;;;;;4995750;28;20018;-38
2022/01/16 05:47:42;;;;;;;3.45;3.22;;;;;;;;;;4994962;28;20402;-37
2022/01/16 05:50:08;;;;;;;13.98;7.10;;;;;;;;;;4996437;28;20102;-37
2022/01/16 05:52:34;;;;;;;14.75;7.63;;;;;;;;;;4996260;28;20029;-38
2022/01/16 05:54:59;;;;;;;16.58;7.20;;;;;;;;;;4995927;28;20471;-38
2022/01/16 05:57:24;;;;;;;7.85;4.53;;;;;;;;;;4995672;28;20078;-37
2022/01/16 05:59:50;;;;;;;3.88;2.63;;;;;;;;;;4996228;28;20077;-38
2022/01/16 06:02:16;;;;;;;9.02;5.72;;;;;;;;;;4995902;28;20018;-37
2022/01/16 06:04:41;;;;;;;4.32;2.58;;;;;;;;;;4996024;28;20029;-37
2022/01/16 06:07:06;;;;;;;5.60;4.10;;;;;;;;;;4996059;28;20018;-37
2022/01/16 06:09:32;;;;;;;27.77;5.18;;;;;;;;;;4994827;28;20030;-38
2022/01/16 06:11:58;;;;;;;0.95;0.95;;;;;;;;;;4996001;28;20036;-37
2022/01/16 06:14:24;;;;;;;5.00;4.60;;;;;;;;;;4994519;28;20489;-37
2022/01/16 06:16:53;;;;;;;4.25;3.70;;;;;;;;;;4995781;28;20027;-37
2022/01/16 06:19:19;;;;;;;6.85;6.15;;;;;;;;;;4995461;28;20026;-37
2022/01/16 06:21:46;;;;;;;8.88;5.10;;;;;;;;;;4995834;28;20057;-37
2022/01/16 06:24:12;;;;;;;11.55;4.50;;;;;;;;;;4995487;28;20033;-37
2022/01/16 06:26:38;;;;;;;9.55;5.72;;;;;;;;;;4995353;28;20096;-39
2022/01/16 06:29:04;;;;;;;11.38;6.45;;;;;;;;;;4995345;28;20066;-40
2022/01/16 06:31:31;;;;;;;7.95;5.97;;;;;;;;;;4995382;28;20031;-39
2022/01/16 06:34:00;;;;;;;6.82;6.20;;;;;;;;;;4995324;28;20572;-39
2022/01/16 06:36:26;;;;;;;15.63;8.48;;;;;;;;;;4995565;28;20042;-39
2022/01/16 06:38:53;;;;;;;6.38;5.72;;;;;;;;;;4995125;28;20026;-39
2022/01/16 06:41:19;;;;;;;9.95;6.80;;;;;;;;;;4995454;28;20188;-39
2022/01/16 06:43:45;;;;;;;6.90;4.10;;;;;;;;;;4995214;28;20510;-38
2022/01/16 06:46:11;;;;;;;15.13;6.38;;;;;;;;;;4995138;28;20025;-38
2022/01/16 06:48:36;;;;;;;11.63;6.40;;;;;;;;;;4995069;28;20022;-39
2022/01/16 06:51:03;;;;;;;26.30;11.65;;;;;;;;;;4994952;28;20034;-38
2022/01/16 06:53:28;;;;;;;23.90;11.10;;;;;;;;;;4994886;28;20026;-38
2022/01/16 06:55:54;;;;;;;20.83;10.35;;;;;;;;;;4993772;28;20129;-38
2022/01/16 06:58:19;;;;;;;17.50;8.32;;;;;;;;;;4995082;28;20034;-38
2022/01/16 07:00:46;;;;;;;19.10;9.50;;;;;;;;;;4995147;28;20398;-38
2022/01/16 07:03:13;;;;;;;21.70;9.35;;;;;;;;;;4994710;28;20030;-38
2022/01/16 07:05:39;;;;;;;57.40;25.60;;;;;;;;;;4994722;28;20023;-38
2022/01/16 07:08:05;;;;;;;26.00;10.93;;;;;;;;;;4994514;28;20026;-38
2022/01/16 07:10:30;;;;;;;28.92;15.85;;;;;;;;;;4994933;28;20105;-38
2022/01/16 07:12:56;;;;;;;20.40;10.07;;;;;;;;;;4994527;28;20458;-37
2022/01/16 07:15:21;;;;;;;28.77;11.48;;;;;;;;;;4994553;28;20027;-38
2022/01/16 07:17:47;;;;;;;26.98;15.82;;;;;;;;;;4994685;28;20054;-38
2022/01/16 07:20:14;;;;;;;31.08;16.25;;;;;;;;;;4994374;28;20437;-38
2022/01/16 07:22:39;;;;;;;27.48;14.25;;;;;;;;;;4994374;28;20038;-38
2022/01/16 07:25:05;;;;;;;31.33;14.70;;;;;;;;;;4994341;28;20030;-38
2022/01/16 07:27:31;;;;;;;28.63;13.82;;;;;;;;;;4994239;28;20386;-38
2022/01/16 07:29:56;;;;;;;23.95;12.60;;;;;;;;;;4994265;28;20033;-38
2022/01/16 07:32:22;;;;;;;21.92;11.10;;;;;;;;;;4994257;28;20027;-38
2022/01/16 07:34:47;;;;;;;29.52;15.02;;;;;;;;;;4994088;28;20023;-38
2022/01/16 07:37:12;;;;;;;36.80;14.52;;;;;;;;;;4994063;28;20050;-39
2022/01/16 07:39:38;;;;;;;20.75;11.20;;;;;;;;;;4994385;28;20018;-38
2022/01/16 07:42:04;;;;;;;35.03;16.17;;;;;;;;;;4992702;28;20117;-39
2022/01/16 07:44:30;;;;;;;17.80;10.05;;;;;;;;;;4994259;28;20022;-39
2022/01/16 07:46:55;;;;;;;21.48;11.43;;;;;;;;;;4994168;28;20026;-39
2022/01/16 07:49:21;;;;;;;19.70;9.82;;;;;;;;;;4993877;28;20058;-39
2022/01/16 07:51:46;;;;;;;45.65;21.88;;;;;;;;;;4994163;28;20057;-39
2022/01/16 07:54:12;;;;;;;46.58;23.13;;;;;;;;;;4994039;28;20443;-38
2022/01/16 07:56:38;;;;;;;34.30;15.02;;;;;;;;;;4992135;28;20042;-39
2022/01/16 07:59:03;;;;;;;21.45;12.55;;;;;;;;;;4992149;28;20096;-39
2022/01/16 08:01:29;;;;;;;46.30;21.38;;;;;;;;;;4992409;28;20285;-38
2022/01/16 08:03:54;;;;;;;44.63;20.08;;;;;;;;;;4993049;28;20161;-38
2022/01/16 08:06:19;;;;;;;36.83;15.30;;;;;;;;;;4993553;28;20383;-39
2022/01/16 08:08:45;;;;;;;30.65;14.18;;;;;;;;;;4993495;28;20076;-39
2022/01/16 08:11:10;;;;;;;41.33;20.05;;;;;;;;;;4993466;28;20422;-38
2022/01/16 08:13:37;;;;;;;24.08;12.80;;;;;;;;;;4991886;28;20022;-39
2022/01/16 08:16:04;;;;;;;26.88;15.18;;;;;;;;;;4991494;28;20026;-39
2022/01/16 08:18:29;;;;;;;27.95;13.23;;;;;;;;;;4991741;28;20033;-39
2022/01/16 08:20:55;;;;;;;31.63;15.80;;;;;;;;;;4991859;28;20034;-39
2022/01/16 08:23:20;;;;;;;44.20;22.48;;;;;;;;;;4991773;28;20034;-39
2022/01/16 08:25:46;;;;;;;41.72;16.85;;;;;;;;;;4991551;28;20471;-39
2022/01/16 08:28:11;;;;;;;26.13;14.43;;;;;;;;;;4993224;28;20105;-39
2022/01/16 08:30:37;;;;;;;34.03;17.13;;;;;;;;;;4993509;28;20448;-39
2022/01/16 08:33:02;;;;;;;38.17;18.08;;;;;;;;;;4993180;28;20028;-39
2022/01/16 08:35:28;;;;;;;40.70;20.85;;;;;;;;;;4993182;28;20113;-39
2022/01/16 08:37:53;;;;;;;18.15;9.48;;;;;;;;;;4993405;28;20036;-39
2022/01/16 08:40:19;;;;;;;27.92;14.23;;;;;;;;;;4993467;28;20066;-38
2022/01/16 08:42:44;;;;;;;22.70;13.88;;;;;;;;;;4993016;28;20432;-39
2022/01/16 08:45:10;;;;;;;30.88;16.63;;;;;;;;;;4993415;28;20027;-40
2022/01/16 08:47:36;;;;;;;41.53;19.58;;;;;;;;;;4993403;28;20037;-39
2022/01/16 08:50:02;;;;;;;33.88;16.10;;;;;;;;;;4993360;28;20486;-39
2022/01/16 08:52:28;;;;;;;27.85;15.38;;;;;;;;;;4992975;28;20026;-39
2022/01/16 08:54:54;;;;;;;27.65;15.02;;;;;;;;;;4992930;28;20030;-39
2022/01/16 08:57:20;;;;;;;34.72;17.92;;;;;;;;;;4992825;28;20097;-39
2022/01/16 08:59:45;;;;;;;41.53;21.75;;;;;;;;;;4993032;28;20114;-39
2022/01/16 09:02:11;;;;;;;19.17;10.25;;;;;;;;;;4992888;28;20106;-39
2022/01/16 09:04:36;;;;;;;29.40;16.63;;;;;;;;;;4993126;28;20039;-39
2022/01/16 09:07:02;;;;;;;31.70;16.05;;;;;;;;;;4992946;28;20450;-39
2022/01/16 09:09:27;;;;;;;31.55;16.33;;;;;;;;;;4993154;28;20114;-39
2022/01/16 09:11:53;;;;;;;28.35;16.40;;;;;;;;;;4993111;28;20517;-39
2022/01/16 09:14:18;;;;;;;30.65;16.10;;;;;;;;;;4993051;28;20038;-39
2022/01/16 09:16:43;;;;;;;36.40;16.75;;;;;;;;;;4992848;28;20034;-39
2022/01/16 09:19:09;;;;;;;26.15;14.95;;;;;;;;;;4994588;28;20390;-39
2022/01/16 09:21:36;;;;;;;29.55;14.05;;;;;;;;;;4996646;28;20023;-39
2022/01/16 09:24:02;;;;;;;42.90;19.75;;;;;;;;;;4996870;28;20061;-40
2022/01/16 09:26:27;;;;;;;42.83;20.27;;;;;;;;;;4996491;28;20076;-39
2022/01/16 09:28:53;;;;;;;24.50;14.98;;;;;;;;;;4996493;28;20034;-40
2022/01/16 09:31:18;;;;;;;26.25;12.93;;;;;;;;;;4996789;28;20026;-40
2022/01/16 09:33:44;;;;;;;26.60;14.60;;;;;;;;;;4996718;28;20394;-40
2022/01/16 09:36:10;;;;;;;30.70;17.45;;;;;;;;;;4996479;28;20073;-40
2022/01/16 09:38:37;;;;;;;33.50;17.58;;;;;;;;;;4996239;28;20513;-40
2022/01/16 09:41:04;;;;;;;35.03;18.00;;;;;;;;;;4996539;28;20378;-39
2022/01/16 09:43:32;;;;;;;29.10;15.15;;;;;;;;;;4996508;28;20432;-40
2022/01/16 09:45:58;;;;;;;32.10;14.13;;;;;;;;;;4996207;28;20035;-40
2022/01/16 09:48:24;;;;;;;29.60;15.80;;;;;;;;;;4995988;28;20026;-40
2022/01/16 09:50:50;;;;;;;37.53;18.67;;;;;;;;;;4996351;28;20018;-40
2022/01/16 09:53:17;;;;;;;18.45;11.70;;;;;;;;;;4996036;28;20475;-40
2022/01/16 09:55:43;;;;;;;28.77;16.63;;;;;;;;;;4996048;28;20026;-41
2022/01/16 09:58:08;;;;;;;30.83;16.85;;;;;;;;;;4995480;28;20057;-43
2022/01/16 10:00:34;;;;;;;36.58;17.35;;;;;;;;;;4995919;28;20030;-40
2022/01/16 10:03:00;;;;;;;24.05;13.10;;;;;;;;;;4995731;28;20030;-40
2022/01/16 10:05:37;;;;;;;31.75;17.05;;;;;;;;;;4995666;28;20105;-40
2022/01/16 10:08:06;;;;;;;47.05;24.98;;;;;;;;;;4995361;28;20486;-40
2022/01/16 10:10:43;;;;;;;28.70;16.15;;;;;;;;;;4995355;28;20164;-40
2022/01/16 10:13:23;;;;;;;26.15;13.88;;;;;;;;;;4995059;28;20018;-38
2022/01/16 10:15:55;;;;;;;;;;;;;;;;;;4995749;28;20019;-38
2022/01/16 10:18:41;;;;;;;19.80;10.52;;;;;;;;;;4995212;28;19953;-38
2022/01/16 10:21:08;;;;;;;23.75;13.63;;;;;;;;;;4993913;28;20038;-40
2022/01/16 10:23:41;;;;;;;34.03;15.13;;;;;;;;;;4995074;28;20041;-39
2022/01/16 10:26:18;;;;;;;27.52;14.55;;;;;;;;;;4995023;28;20030;-37
2022/01/16 10:28:44;;;;;;;29.92;11.00;;;;;;;;;;4995049;28;20022;-38
2022/01/16 10:31:22;;;;;;;24.50;14.38;;;;;;;;;;4994633;28;20157;-39
2022/01/16 10:33:48;;;;;;;27.10;14.43;;;;;;;;;;4995477;28;20478;-39
2022/01/16 10:36:31;;;;;;;20.27;12.63;;;;;;;;;;4995488;28;20453;-39
2022/01/16 10:39:10;;;;;;;17.95;11.27;;;;;;;;;;4994699;28;20609;-38
2022/01/16 10:41:36;;;;;;;13.23;7.30;;;;;;;;;;4994113;28;20034;-39
2022/01/16 10:44:02;;;;;;;18.05;11.32;;;;;;;;;;4995154;28;20044;-38
2022/01/16 10:46:27;;;;;;;21.05;13.23;;;;;;;;;;4994944;28;20431;-38
2022/01/16 10:49:16;;;;;;;18.83;9.93;;;;;;;;;;4994952;28;20029;-40
2022/01/16 10:51:41;;;;;;;16.45;8.48;;;;;;;;;;4992852;28;20120;-39
2022/01/16 10:54:34;;;;;;;31.17;16.52;;;;;;;;;;4993652;28;20069;-40
2022/01/16 10:57:29;;;;;;;41.88;19.23;;;;;;;;;;4993122;28;20082;-39
2022/01/16 11:00:11;;;;;;;18.17;11.23;;;;;;;;;;4989488;28;20054;-38
2022/01/16 11:02:39;;;;;;;25.00;13.70;;;;;;;;;;4992897;28;20038;-38
2022/01/16 11:05:16;;;;;;;22.75;12.93;;;;;;;;;;4993451;28;20436;-40
2022/01/16 11:07:42;;;;;;;20.45;11.13;;;;;;;;;;4992610;28;20045;-38
2022/01/16 11:10:23;;;;;;;20.48;10.20;;;;;;;;;;4992498;28;20033;-39
2022/01/16 11:12:49;;;;;;;31.63;16.02;;;;;;;;;;4994760;28;20390;-38
2022/01/16 11:15:17;;;;;;;24.45;11.90;;;;;;;;;;4994499;28;20026;-38
2022/01/16 11:17:42;;;;;;;29.80;16.17;;;;;;;;;;4994279;28;20033;-39
2022/01/16 11:20:09;;;;;;;24.02;11.15;;;;;;;;;;4994337;28;20030;-41
2022/01/16 11:22:55;;;;;;;28.52;16.48;;;;;;;;;;4993921;28;20061;-40
2022/01/16 11:25:30;;;;;;;14.07;8.48;;;;;;;;;;4991781;28;20026;-42
2022/01/16 11:28:01;;;;;;;13.02;8.20;;;;;;;;;;4994288;28;20378;-39
2022/01/16 11:30:29;;;;;;;16.00;10.57;;;;;;;;;;4994381;28;20026;-38
2022/01/16 11:32:55;;;;;;;21.67;11.77;;;;;;;;;;4994117;28;20374;-38
2022/01/16 11:35:22;;;;;;;35.13;18.38;;;;;;;;;;4993866;28;20018;-38
2022/01/16 11:37:48;;;;;;;29.30;15.02;;;;;;;;;;4993682;28;20469;-40
2022/01/16 11:40:37;;;;;;;20.15;11.18;;;;;;;;;;4993195;28;20117;-39
2022/01/16 11:43:13;;;;;;;39.30;19.47;;;;;;;;;;4992250;28;20368;-41
2022/01/16 11:45:47;;;;;;;34.42;17.83;;;;;;;;;;4993248;28;20026;-40
2022/01/16 11:48:16;;;;;;;35.90;19.83;;;;;;;;;;4992737;28;20022;-40
2022/01/16 11:50:42;;;;;;;12.73;8.70;;;;;;;;;;4990121;28;20402;-39
2022/01/16 11:53:07;;;;;;;31.95;14.98;;;;;;;;;;4993723;28;20033;-39
2022/01/16 11:55:34;;;;;;;24.60;12.80;;;;;;;;;;4993737;28;20034;-40
2022/01/16 11:58:01;;;;;;;14.07;8.07;;;;;;;;;;4993610;28;20093;-42
2022/01/16 12:00:43;;;;;;;35.67;18.27;;;;;;;;;;4993658;28;20475;-42
2022/01/16 12:03:35;;;;;;;21.65;10.95;;;;;;;;;;4992860;28;20041;-43
2022/01/16 12:06:35;;;;;;;12.52;7.32;;;;;;;;;;4992352;28;20499;-41
2022/01/16 12:09:03;;;;;;;23.75;6.97;;;;;;;;;;4987459;28;20069;-40
2022/01/16 12:11:37;;;;;;;28.67;16.67;;;;;;;;;;4992351;28;20411;-41
2022/01/16 12:14:03;;;;;;;15.60;10.07;;;;;;;;;;4991470;28;20018;-40
2022/01/16 12:16:42;;;;;;;28.75;11.45;;;;;;;;;;4991887;28;20029;-40
2022/01/16 12:19:45;;;;;;;33.33;16.83;;;;;;;;;;4990121;28;20076;-40
2022/01/16 12:22:14;;;;;;;22.40;12.18;;;;;;;;;;4973114;28;20023;-40
2022/01/16 12:24:49;;;;;;;22.65;11.85;;;;;;;;;;4974099;28;20034;-41
2022/01/16 12:27:25;;;;;;;21.50;13.43;;;;;;;;;;4973860;28;20069;-41
2022/01/16 12:30:11;;;;;;;23.20;14.18;;;;;;;;;;4973834;28;20034;-40
2022/01/16 12:33:08;;;;;;;18.65;12.77;;;;;;;;;;4973984;28;20027;-40
2022/01/16 12:35:55;;;;;;;24.27;14.25;;;;;;;;;;4973947;28;20056;-41
2022/01/16 12:38:42;;;;;;;30.00;16.15;;;;;;;;;;4973624;28;20486;-41
2022/01/16 12:41:11;;;;;;;31.25;16.40;;;;;;;;;;4978577;28;20026;-41
2022/01/16 12:43:49;;;;;;;17.45;11.25;;;;;;;;;;4992957;28;20037;-40
2022/01/16 12:46:19;;;;;;;21.48;12.60;;;;;;;;;;4993282;28;20030;-40
2022/01/16 12:48:48;;;;;;;21.30;11.88;;;;;;;;;;4993217;28;20062;-40
2022/01/16 12:51:15;;;;;;;41.15;22.52;;;;;;;;;;4992921;28;20053;-42
2022/01/16 12:53:44;;;;;;;40.10;19.33;;;;;;;;;;4995368;28;20027;-44
2022/01/16 12:56:24;;;;;;;31.63;16.35;;;;;;;;;;4996353;28;20026;-41
2022/01/16 12:58:52;;;;;;;24.17;12.73;;;;;;;;;;4997245;28;20029;-42
2022/01/16 13:01:18;;;;;;;31.13;15.20;;;;;;;;;;4997239;28;20037;-40
2022/01/16 13:03:45;;;;;;;35.88;18.58;;;;;;;;;;4997235;28;20030;-41
2022/01/16 13:06:24;;;;;;;24.90;11.52;;;;;;;;;;4997279;28;20088;-41
2022/01/16 13:09:04;;;;;;;23.38;14.00;;;;;;;;;;4997128;28;20042;-41
2022/01/16 13:11:33;;;;;;;38.45;20.90;;;;;;;;;;4997207;28;20045;-41
2022/01/16 13:13:59;;;;;;;27.10;14.38;;;;;;;;;;4997126;28;20381;-41
2022/01/16 13:16:44;;;;;;;30.88;14.80;;;;;;;;;;4996761;28;20110;-42
2022/01/16 13:19:22;;;;;;;19.95;11.85;;;;;;;;;;4996919;28;20097;-42
2022/01/16 13:21:59;;;;;;;26.48;16.52;;;;;;;;;;4996955;28;20061;-40
2022/01/16 13:24:46;;;;;;;25.55;11.98;;;;;;;;;;4996902;28;20499;-41
2022/01/16 13:27:15;;;;;;;22.23;12.63;;;;;;;;;;4996544;28;20022;-41
2022/01/16 13:29:48;;;;;;;27.55;15.73;;;;;;;;;;4996611;28;20557;-41
2022/01/16 13:32:17;;;;;;;23.98;12.95;;;;;;;;;;4996985;28;20076;-41
2022/01/16 13:34:46;;;;;;;39.72;19.25;;;;;;;;;;4996708;28;20434;-44
2022/01/16 13:37:15;;;;;;;33.90;16.95;;;;;;;;;;4996715;28;20371;-41
2022/01/16 13:39:47;;;;;;;37.70;20.38;;;;;;;;;;4996562;28;20030;-41
2022/01/16 13:42:19;;;;;;;19.98;11.48;;;;;;;;;;4996592;28;20386;-41
2022/01/16 13:44:45;;;;;;;20.75;10.07;;;;;;;;;;4996515;28;20033;-41
2022/01/16 13:47:16;;;;;;;28.52;14.45;;;;;;;;;;4996435;28;20036;-43
2022/01/16 13:49:50;;;;;;;31.10;15.40;;;;;;;;;;4996459;28;20026;-41
2022/01/16 13:52:25;;;;;;;38.70;20.95;;;;;;;;;;4996127;28;20045;-42
2022/01/16 13:55:06;;;;;;;20.38;12.13;;;;;;;;;;4996513;28;20432;-41
2022/01/16 13:57:33;;;;;;;28.27;16.67;;;;;;;;;;4995751;28;20054;-41
2022/01/16 13:59:59;;;;;;;26.60;14.05;;;;;;;;;;4996226;28;20360;-41
2022/01/16 14:02:26;;;;;;;34.60;17.75;;;;;;;;;;4997045;28;20107;-41
2022/01/16 14:04:52;;;;;;;32.97;15.93;;;;;;;;;;4995100;28;20033;-41
2022/01/16 14:07:22;;;;;;;34.65;19.33;;;;;;;;;;4996056;28;20109;-42
2022/01/16 14:09:52;;;;;;;34.28;18.67;;;;;;;;;;4996052;28;20369;-41
2022/01/16 14:12:21;;;;;;;26.58;14.73;;;;;;;;;;4996051;28;20363;-41
2022/01/16 14:14:48;;;;;;;32.30;16.58;;;;;;;;;;4995650;28;20026;-40
2022/01/16 14:17:39;;;;;;;33.95;16.85;;;;;;;;;;4995890;28;20026;-41
2022/01/16 14:20:25;;;;;;;33.55;18.75;;;;;;;;;;4995615;28;20549;-41
2022/01/16 14:22:50;;;;;;;27.15;15.63;;;;;;;;;;4995896;28;20027;-42
2022/01/16 14:25:16;;;;;;;24.88;14.00;;;;;;;;;;4995884;28;20033;-41
2022/01/16 14:27:42;;;;;;;53.72;27.95;;;;;;;;;;4995343;28;20038;-42
2022/01/16 14:30:10;;;;;;;32.35;18.00;;;;;;;;;;4995709;28;20031;-41
2022/01/16 14:32:36;;;;;;;43.10;22.70;;;;;;;;;;4995398;28;20030;-42
2022/01/16 14:35:03;;;;;;;52.40;27.73;;;;;;;;;;4995640;28;20029;-42
2022/01/16 14:37:30;;;;;;;30.02;15.55;;;;;;;;;;4995201;28;20030;-41
2022/01/16 14:39:56;;;;;;;42.88;24.50;;;;;;;;;;4995220;28;20037;-41
2022/01/16 14:42:28;;;;;;;44.70;22.02;;;;;;;;;;4995491;28;20378;-42
2022/01/16 14:44:53;;;;;;;50.70;26.77;;;;;;;;;;4995282;28;20034;-42
2022/01/16 14:47:19;;;;;;;34.55;17.85;;;;;;;;;;4995420;28;20065;-41
2022/01/16 14:49:45;;;;;;;64.20;31.42;;;;;;;;;;4995283;28;20502;-42
2022/01/16 14:52:11;;;;;;;43.78;20.42;;;;;;;;;;4995025;28;20019;-42
2022/01/16 14:54:38;;;;;;;47.28;24.27;;;;;;;;;;4995258;28;20031;-40
2022/01/16 14:57:04;;;;;;;51.17;28.00;;;;;;;;;;4994862;28;20038;-40
2022/01/16 14:59:30;;;;;;;62.75;33.22;;;;;;;;;;4994789;28;20103;-42
2022/01/16 15:01:56;;;;;;;57.95;28.38;;;;;;;;;;4994986;28;20026;-43
2022/01/16 15:04:21;;;;;;;65.82;31.90;;;;;;;;;;4993442;28;20481;-40
2022/01/16 15:06:47;;;;;;;67.72;32.85;;;;;;;;;;4994661;28;20034;-41
2022/01/16 15:09:13;;;;;;;59.13;29.02;;;;;;;;;;4994919;28;20034;-42
2022/01/16 15:11:39;;;;;;;45.58;22.27;;;;;;;;;;4994544;28;20026;-42
2022/01/16 15:14:05;;;;;;;54.70;25.00;;;;;;;;;;4994589;28;20045;-41